YYZ weather

Lester B. Pearson International Airport
Toronto, Ontario, Canada

Public forecast

Using degrees Celsius for public forecast. Weather courtesy of forecast.io.

Current aviation weather report (METAR) for Lester B. Pearson International Airport

Retrieved 2020/08/08 00:00 UTC (3 minutes ago):

CYYZ 080000Z 16004KT 15SM FEW060 23/09 A3013 RMK CU1 SLP203 DENSITY ALT 1400FT

Aviation forecast (TAF) for Lester B. Pearson International Airport

Retrieved 2020-08-08 00:42 UTC (0 seconds ago):

TAF CYYZ 072338Z 0800/0906 15008KT P6SM SCT050 TEMPO 0800/0804 BKN050 BECMG 0800/0802 33008KT FM080400 02005KT P6SM FEW050 FM080600 VRB03KT P6SM SKC PROB30 0807/0811 1SM BR FM081100 34007KT P6SM SKC BECMG 0816/0818 17010KT BECMG 0901/0903 21007KT FM090500 27009KT P6SM SKC RMK NXT FCST BY 080300Z